Time;durP1;ratioP1;P1;durP2;ratioP2;P2;SDS_P1;SDS_P2;PMS_P1;PMS_P2;Temp;Humidity;BMP_temperature;BMP_pressure;BME280_temperature;BME280_humidity;BME280_pressure;Samples;Min_cycle;Max_cycle;Signal;HPM_P1;HPM_P2
2022/03/04 00:00:55;;;;;;;32.03;25.10;;;1.40;99.90;;;;;;4985608;28;20464;-73
2022/03/04 00:03:22;;;;;;;30.30;26.93;;;1.30;99.90;;;;;;4999286;28;20805;-73
2022/03/04 00:05:50;;;;;;;29.90;26.80;;;1.30;99.90;;;;;;4999445;28;20464;-74
2022/03/04 00:08:17;;;;;;;28.60;25.80;;;1.30;99.90;;;;;;5001495;28;20462;-74
2022/03/04 00:10:43;;;;;;;29.30;26.57;;;1.20;99.90;;;;;;5000209;28;21012;-73
2022/03/04 00:13:11;;;;;;;34.50;26.83;;;1.10;99.90;;;;;;4996005;28;21345;-71
2022/03/04 00:15:39;;;;;;;31.07;27.17;;;1.10;99.90;;;;;;5001865;28;20473;-73
2022/03/04 00:18:06;;;;;;;32.50;27.57;;;1.00;99.90;;;;;;4998733;28;20764;-73
2022/03/04 00:20:33;;;;;;;27.87;25.20;;;1.00;99.90;;;;;;4997733;28;20895;-74
2022/03/04 00:23:00;;;;;;;28.60;25.93;;;0.90;99.90;;;;;;5002857;28;20470;-72
2022/03/04 00:25:28;;;;;;;33.00;27.23;;;0.80;99.90;;;;;;4998463;28;20516;-73
2022/03/04 00:27:55;;;;;;;30.73;27.50;;;0.80;99.90;;;;;;4996644;28;20465;-73
2022/03/04 00:30:23;;;;;;;30.03;26.00;;;0.70;99.90;;;;;;5002231;28;20500;-72
2022/03/04 00:32:50;;;;;;;29.53;26.70;;;0.60;99.90;;;;;;4992856;28;20468;-70
2022/03/04 00:35:17;;;;;;;29.50;26.77;;;0.50;99.90;;;;;;5002813;28;20799;-70
2022/03/04 00:37:44;;;;;;;29.30;25.73;;;0.40;99.90;;;;;;4994868;28;20462;-70
2022/03/04 00:40:14;;;;;;;29.70;26.80;;;0.40;99.90;;;;;;5004332;28;20471;-71
2022/03/04 00:42:42;;;;;;;28.50;25.53;;;0.40;99.90;;;;;;4998959;28;20465;-71
2022/03/04 00:45:10;;;;;;;31.10;27.00;;;0.40;99.90;;;;;;4995439;28;20557;-71
2022/03/04 00:47:38;;;;;;;29.53;26.33;;;0.40;99.90;;;;;;5001928;28;20597;-71
2022/03/04 00:50:06;;;;;;;28.20;24.63;;;0.50;99.90;;;;;;4993572;28;20500;-71
2022/03/04 00:52:34;;;;;;;29.20;26.30;;;0.40;99.90;;;;;;4998110;28;20471;-70
2022/03/04 00:55:01;;;;;;;33.40;26.27;;;0.30;99.90;;;;;;5006271;28;20467;-72
2022/03/04 00:57:28;;;;;;;32.40;26.30;;;0.20;99.90;;;;;;5002661;28;20493;-70
2022/03/04 00:59:56;;;;;;;30.70;26.47;;;0.10;99.90;;;;;;4999534;28;20588;-70
2022/03/04 01:02:23;;;;;;;30.90;26.17;;;0.00;99.90;;;;;;4997535;28;20480;-71
2022/03/04 01:04:51;;;;;;;38.00;26.03;;;-0.10;99.90;;;;;;5002238;28;20496;-73
2022/03/04 01:07:18;;;;;;;42.13;26.77;;;-0.10;99.90;;;;;;5002120;28;20919;-72
2022/03/04 01:09:46;;;;;;;35.50;26.33;;;-0.20;99.90;;;;;;5003733;28;20472;-73
2022/03/04 01:12:13;;;;;;;31.33;27.03;;;-0.30;99.90;;;;;;4999767;28;20969;-71
2022/03/04 01:14:40;;;;;;;28.27;25.60;;;-0.30;99.90;;;;;;5003226;28;20473;-72
2022/03/04 01:17:07;;;;;;;34.17;25.93;;;-0.40;99.90;;;;;;5005579;28;20513;-72
2022/03/04 01:19:35;;;;;;;28.43;25.40;;;-0.40;99.90;;;;;;5000045;28;20462;-71
2022/03/04 01:22:04;;;;;;;28.70;25.87;;;-0.40;99.90;;;;;;4993219;28;20493;-71
2022/03/04 01:24:31;;;;;;;30.97;26.40;;;-0.40;99.90;;;;;;5001798;28;20512;-70
2022/03/04 01:26:59;;;;;;;29.57;26.53;;;-0.50;99.90;;;;;;4998195;28;20471;-72
2022/03/04 01:29:26;;;;;;;30.37;27.63;;;-0.60;99.90;;;;;;5000642;28;20499;-73
2022/03/04 01:31:52;;;;;;;29.30;26.40;;;-0.60;99.90;;;;;;4996839;28;20506;-73
2022/03/04 01:34:19;;;;;;;35.93;28.23;;;-0.60;99.90;;;;;;4994758;28;20478;-73
2022/03/04 01:36:46;;;;;;;33.50;27.23;;;-0.70;99.90;;;;;;5003719;28;20483;-73
2022/03/04 01:39:14;;;;;;;36.40;28.50;;;-0.70;99.90;;;;;;4998789;28;20489;-72
2022/03/04 01:41:41;;;;;;;35.33;28.20;;;-0.70;99.90;;;;;;4992360;28;20795;-72
2022/03/04 01:44:08;;;;;;;30.37;27.30;;;-0.70;99.90;;;;;;4992106;28;20461;-71
2022/03/04 01:46:35;;;;;;;32.50;29.00;;;-0.70;99.90;;;;;;4995358;28;20462;-73
2022/03/04 01:49:03;;;;;;;33.17;27.80;;;-0.60;99.90;;;;;;5000108;28;20464;-72
2022/03/04 01:51:31;;;;;;;37.37;28.27;;;-0.60;99.90;;;;;;4996381;28;20634;-71
2022/03/04 01:53:57;;;;;;;36.57;28.80;;;-0.50;99.90;;;;;;5000599;28;20601;-74
2022/03/04 01:56:26;;;;;;;31.27;28.07;;;-0.60;99.90;;;;;;4998026;28;20466;-71
2022/03/04 01:58:53;;;;;;;32.63;29.10;;;-0.60;99.90;;;;;;4999780;28;20537;-74
2022/03/04 02:01:20;;;;;;;31.83;28.53;;;-0.60;99.90;;;;;;4999984;28;20840;-72
2022/03/04 02:03:46;;;;;;;32.20;28.67;;;-0.60;99.90;;;;;;5001153;28;20477;-73
2022/03/04 02:06:14;;;;;;;35.43;30.20;;;-0.60;99.90;;;;;;5001120;28;20474;-72
2022/03/04 02:08:41;;;;;;;33.60;29.20;;;-0.60;99.90;;;;;;4997465;28;20469;-72
2022/03/04 02:11:08;;;;;;;33.93;30.30;;;-0.70;99.90;;;;;;5001370;28;20504;-70
2022/03/04 02:13:39;;;;;;;33.67;30.07;;;-0.70;99.90;;;;;;4995120;28;20472;-70
2022/03/04 02:16:11;;;;;;;34.37;29.33;;;-0.70;99.90;;;;;;4994238;28;20607;-72
2022/03/04 02:18:38;;;;;;;33.37;29.97;;;-0.70;99.90;;;;;;4997791;28;20470;-69
2022/03/04 02:21:08;;;;;;;31.80;28.53;;;-0.70;99.90;;;;;;5001716;28;20499;-71
2022/03/04 02:23:37;;;;;;;34.03;30.30;;;-0.70;99.90;;;;;;4998107;28;20466;-69
2022/03/04 02:26:05;;;;;;;32.63;29.43;;;-0.70;99.90;;;;;;5009990;28;20953;-73
2022/03/04 02:28:32;;;;;;;32.03;28.77;;;-0.70;99.90;;;;;;5010593;28;20454;-71
2022/03/04 02:30:59;;;;;;;32.47;29.10;;;-0.70;99.90;;;;;;5010310;28;20491;-70
2022/03/04 02:36:48;;;;;;;35.10;27.70;;;-0.60;99.90;;;;;;5010310;28;20812;-72
2022/03/04 02:39:32;;;;;;;33.50;29.73;;;-0.50;99.90;;;;;;5011438;28;20536;-72
2022/03/04 02:41:59;;;;;;;40.13;29.33;;;-0.50;99.90;;;;;;5010810;28;20502;-72
2022/03/04 02:44:26;;;;;;;36.93;30.10;;;-0.50;99.90;;;;;;5008418;28;20457;-72
2022/03/04 02:46:53;;;;;;;35.83;28.83;;;-0.40;99.90;;;;;;5010161;28;20466;-73
2022/03/04 02:49:20;;;;;;;34.47;29.70;;;-0.40;99.90;;;;;;5010302;28;20454;-71
2022/03/04 02:51:46;;;;;;;34.87;30.13;;;-0.30;99.90;;;;;;5010475;28;20499;-71
2022/03/04 02:54:13;;;;;;;35.63;31.70;;;-0.30;99.90;;;;;;5014895;28;20563;-73
2022/03/04 02:56:42;;;;;;;34.40;30.40;;;-0.20;99.90;;;;;;5014075;28;20458;-74
2022/03/04 02:59:09;;;;;;;34.73;30.10;;;-0.10;99.90;;;;;;5014025;28;20499;-72
2022/03/04 03:01:36;;;;;;;33.63;29.30;;;-0.10;99.90;;;;;;5014030;28;20488;-71
2022/03/04 03:07:24;;;;;;;34.73;29.73;;;0.00;99.90;;;;;;5014622;28;20895;-72
2022/03/04 03:09:51;;;;;;;43.13;28.67;;;0.00;99.90;;;;;;5014529;28;20457;-76
2022/03/04 03:12:19;;;;;;;32.03;28.63;;;0.00;99.90;;;;;;5013500;28;20512;-71
2022/03/04 03:14:47;;;;;;;35.40;29.20;;;0.00;99.90;;;;;;5013558;28;20457;-72
2022/03/04 03:17:14;;;;;;;35.80;30.73;;;0.00;99.90;;;;;;5013631;28;20460;-72
2022/03/04 03:19:41;;;;;;;34.73;29.90;;;0.10;99.90;;;;;;5014021;28;20464;-72
2022/03/04 03:22:09;;;;;;;31.73;28.47;;;0.10;99.90;;;;;;5013856;28;20464;-71
2022/03/04 03:24:36;;;;;;;36.60;31.10;;;0.00;99.90;;;;;;5008509;28;20487;-73
2022/03/04 03:27:02;;;;;;;34.13;28.80;;;0.00;99.90;;;;;;5005383;28;20466;-73
2022/03/04 03:29:31;;;;;;;33.43;29.67;;;0.10;99.90;;;;;;5004450;28;20458;-70
2022/03/04 03:31:58;;;;;;;33.00;28.63;;;0.10;99.90;;;;;;5003816;28;20499;-73
2022/03/04 03:34:24;;;;;;;38.70;28.87;;;0.10;99.90;;;;;;5000296;28;20468;-71
2022/03/04 03:36:51;;;;;;;32.70;29.23;;;0.10;99.90;;;;;;5001838;28;20496;-73
2022/03/04 03:39:18;;;;;;;38.07;29.00;;;0.10;99.90;;;;;;4997489;28;20489;-71
2022/03/04 03:41:45;;;;;;;31.80;28.30;;;0.10;99.90;;;;;;5002957;28;20478;-73
2022/03/04 03:44:12;;;;;;;40.40;29.20;;;0.10;99.90;;;;;;5005139;28;20474;-72
2022/03/04 03:46:41;;;;;;;38.23;30.10;;;0.20;99.90;;;;;;5008932;28;20500;-72
2022/03/04 03:49:08;;;;;;;34.57;28.40;;;0.20;99.90;;;;;;5001111;28;20558;-71
2022/03/04 03:51:35;;;;;;;34.20;30.63;;;0.20;99.90;;;;;;5003141;28;20843;-71
2022/03/04 03:54:02;;;;;;;34.63;30.50;;;0.20;99.90;;;;;;5003610;28;20601;-72
2022/03/04 03:56:29;;;;;;;32.90;28.90;;;0.20;99.90;;;;;;4995899;28;20473;-71
2022/03/04 03:58:56;;;;;;;40.33;30.17;;;0.20;99.90;;;;;;5002631;28;20544;-70
2022/03/04 04:01:23;;;;;;;32.70;29.27;;;0.20;99.90;;;;;;5003424;28;20483;-70
2022/03/04 04:03:52;;;;;;;37.67;31.23;;;0.20;99.90;;;;;;4999460;28;20471;-73
2022/03/04 04:06:19;;;;;;;32.30;28.50;;;0.20;99.90;;;;;;5004689;28;20492;-72
2022/03/04 04:08:46;;;;;;;31.97;28.90;;;0.20;99.90;;;;;;5006316;28;20478;-73
2022/03/04 04:11:13;;;;;;;33.13;28.93;;;0.20;99.90;;;;;;5004885;28;20502;-73
2022/03/04 04:13:40;;;;;;;32.33;28.93;;;0.20;99.90;;;;;;5005035;28;20468;-73
2022/03/04 04:16:07;;;;;;;33.03;29.40;;;0.20;99.90;;;;;;5003949;28;20527;-73
2022/03/04 04:18:33;;;;;;;44.90;31.17;;;0.20;99.90;;;;;;5000755;28;20863;-72
2022/03/04 04:21:02;;;;;;;38.40;29.03;;;0.20;99.90;;;;;;5005071;28;20814;-72
2022/03/04 04:23:28;;;;;;;34.13;29.10;;;0.20;99.90;;;;;;4997289;28;20476;-73
2022/03/04 04:25:55;;;;;;;31.03;27.70;;;0.10;99.90;;;;;;5002283;28;20505;-72
2022/03/04 04:28:25;;;;;;;38.43;29.90;;;0.20;99.90;;;;;;5000090;28;20466;-72
2022/03/04 04:30:52;;;;;;;32.53;28.87;;;0.20;99.90;;;;;;5003130;28;20462;-71
2022/03/04 04:33:19;;;;;;;32.40;29.00;;;0.20;99.90;;;;;;4999496;28;20832;-73
2022/03/04 04:35:46;;;;;;;44.73;30.13;;;0.20;99.90;;;;;;5006558;28;20492;-70
2022/03/04 04:38:14;;;;;;;36.73;29.50;;;0.20;99.90;;;;;;4997296;28;20464;-71
2022/03/04 04:40:41;;;;;;;31.20;27.97;;;0.20;99.90;;;;;;5000390;28;20464;-73
2022/03/04 04:43:08;;;;;;;36.77;29.70;;;0.20;99.90;;;;;;4997977;28;20479;-73
2022/03/04 04:45:35;;;;;;;33.53;29.73;;;0.10;99.90;;;;;;5002304;28;20479;-73
2022/03/04 04:48:01;;;;;;;33.80;29.50;;;0.00;99.90;;;;;;5000875;28;20476;-73
2022/03/04 04:50:28;;;;;;;37.97;30.57;;;0.00;99.90;;;;;;5001457;28;20472;-71
2022/03/04 04:52:55;;;;;;;34.37;29.37;;;-0.10;99.90;;;;;;4996996;28;20497;-73
2022/03/04 04:55:23;;;;;;;32.50;28.63;;;-0.10;99.90;;;;;;5002488;28;20476;-72
2022/03/04 04:57:53;;;;;;;35.00;30.10;;;-0.10;99.90;;;;;;4998374;28;20563;-71
2022/03/04 05:00:20;;;;;;;31.33;28.13;;;-0.10;99.90;;;;;;4996948;28;20468;-72
2022/03/04 05:02:47;;;;;;;43.13;30.90;;;-0.10;99.90;;;;;;4979443;28;20494;-71
2022/03/04 05:05:14;;;;;;;37.53;29.30;;;-0.10;99.90;;;;;;4970945;28;21042;-72
2022/03/04 05:07:41;;;;;;;36.97;30.40;;;-0.20;99.90;;;;;;4969247;28;20554;-73
2022/03/04 05:10:09;;;;;;;33.80;28.83;;;-0.20;99.90;;;;;;4969681;28;20507;-72
2022/03/04 05:12:37;;;;;;;33.30;29.70;;;-0.20;99.90;;;;;;4969947;28;20508;-74
2022/03/04 05:15:05;;;;;;;49.27;29.30;;;-0.30;99.90;;;;;;4971149;28;20477;-73
2022/03/04 05:17:32;;;;;;;31.83;28.43;;;-0.20;99.90;;;;;;4970922;28;20811;-71
2022/03/04 05:19:59;;;;;;;41.07;30.93;;;-0.20;99.90;;;;;;4970151;28;20914;-73
2022/03/04 05:22:25;;;;;;;38.40;30.20;;;-0.20;99.90;;;;;;4969578;28;20476;-73
2022/03/04 05:24:52;;;;;;;34.87;29.20;;;-0.20;99.90;;;;;;4997130;28;20487;-72
2022/03/04 05:27:19;;;;;;;37.77;28.50;;;-0.30;99.90;;;;;;4996416;28;20461;-72
2022/03/04 05:29:47;;;;;;;38.40;30.13;;;-0.30;99.90;;;;;;4993274;28;20466;-72
2022/03/04 05:32:14;;;;;;;36.67;30.90;;;-0.40;99.90;;;;;;5004537;28;20484;-72
2022/03/04 05:34:41;;;;;;;39.17;30.23;;;-0.40;99.90;;;;;;4974317;28;20477;-72
2022/03/04 05:37:08;;;;;;;35.47;30.80;;;-0.40;99.90;;;;;;4968396;28;20525;-72
2022/03/04 05:39:35;;;;;;;39.47;30.83;;;-0.40;99.90;;;;;;4970826;28;20476;-71
2022/03/04 05:42:05;;;;;;;43.23;28.87;;;-0.40;99.90;;;;;;4969324;28;20464;-73
2022/03/04 05:44:32;;;;;;;35.43;30.20;;;-0.40;99.90;;;;;;4970100;28;20824;-72
2022/03/04 05:47:00;;;;;;;38.10;29.80;;;-0.40;99.90;;;;;;4970764;28;21060;-71
2022/03/04 05:49:27;;;;;;;31.10;27.70;;;-0.40;99.90;;;;;;4970343;28;20489;-72
2022/03/04 05:51:55;;;;;;;36.40;29.43;;;-0.30;99.90;;;;;;4969510;28;20492;-74
2022/03/04 05:54:21;;;;;;;37.93;29.70;;;-0.30;99.90;;;;;;4970198;28;20496;-72
2022/03/04 05:56:48;;;;;;;31.40;28.00;;;-0.20;99.90;;;;;;4970576;28;21133;-73
2022/03/04 05:59:15;;;;;;;38.07;30.17;;;-0.30;99.90;;;;;;4971372;28;20461;-72
2022/03/04 06:01:42;;;;;;;37.63;29.27;;;-0.30;99.90;;;;;;4968590;28;20471;-71
2022/03/04 06:04:10;;;;;;;48.03;31.27;;;-0.40;99.90;;;;;;4969984;28;20469;-71
2022/03/04 06:06:40;;;;;;;38.33;29.00;;;-0.40;99.90;;;;;;4968253;28;20468;-73
2022/03/04 06:09:07;;;;;;;40.00;30.07;;;-0.50;99.90;;;;;;4969840;28;20469;-71
2022/03/04 06:11:34;;;;;;;41.90;29.10;;;-0.50;99.90;;;;;;4970484;28;21063;-73
2022/03/04 06:14:01;;;;;;;42.13;28.97;;;-0.50;99.90;;;;;;4970675;28;20551;-73
2022/03/04 06:16:28;;;;;;;42.20;30.63;;;-0.60;99.90;;;;;;4970837;28;20462;-70
2022/03/04 06:18:55;;;;;;;36.17;30.60;;;-0.60;99.90;;;;;;4970639;28;20825;-71
2022/03/04 06:21:23;;;;;;;35.73;30.77;;;-0.50;99.90;;;;;;4970082;28;20462;-71
2022/03/04 06:23:50;;;;;;;40.37;31.67;;;-0.50;99.90;;;;;;4970770;28;20567;-73
2022/03/04 06:26:17;;;;;;;35.90;30.07;;;-0.50;99.90;;;;;;4969123;28;20456;-71
2022/03/04 06:28:44;;;;;;;46.33;31.70;;;-0.50;99.90;;;;;;4972900;28;20835;-72
2022/03/04 06:31:11;;;;;;;35.13;31.10;;;-0.50;99.90;;;;;;4974782;28;20470;-70
2022/03/04 06:33:39;;;;;;;40.13;30.60;;;-0.30;99.90;;;;;;4973641;28;20882;-73
2022/03/04 06:36:09;;;;;;;33.40;29.77;;;-0.40;99.90;;;;;;4972682;28;20495;-73
2022/03/04 06:38:41;;;;;;;34.07;29.20;;;-0.30;99.90;;;;;;4975077;28;20930;-71
2022/03/04 06:41:08;;;;;;;32.40;28.77;;;-0.30;99.90;;;;;;4974998;28;20476;-72
2022/03/04 06:43:35;;;;;;;33.70;30.07;;;-0.40;99.90;;;;;;4988591;28;20468;-70
2022/03/04 06:46:03;;;;;;;32.83;29.43;;;-0.40;99.90;;;;;;4999817;28;20467;-72
2022/03/04 06:48:30;;;;;;;37.20;31.27;;;-0.50;99.90;;;;;;4969312;28;21010;-72
2022/03/04 06:50:57;;;;;;;38.47;31.93;;;-0.60;99.90;;;;;;4967417;28;20485;-71
2022/03/04 06:53:24;;;;;;;38.17;31.17;;;-0.50;99.90;;;;;;4965712;28;20497;-71
2022/03/04 06:55:53;;;;;;;43.30;30.33;;;-0.50;99.90;;;;;;4968901;28;20465;-70
2022/03/04 06:58:20;;;;;;;33.27;29.90;;;-0.50;99.90;;;;;;4969667;28;20465;-73
2022/03/04 07:00:47;;;;;;;43.60;31.10;;;-0.50;99.90;;;;;;4968783;28;20457;-71
2022/03/04 07:03:14;;;;;;;38.20;30.97;;;-0.50;99.90;;;;;;4968789;28;21066;-74
2022/03/04 07:05:43;;;;;;;35.77;31.30;;;-0.40;99.90;;;;;;4968986;28;20983;-71
2022/03/04 07:08:11;;;;;;;39.97;30.43;;;-0.20;99.90;;;;;;4970267;28;20470;-72
2022/03/04 07:10:42;;;;;;;37.63;30.73;;;-0.10;99.90;;;;;;4969393;28;20478;-73
2022/03/04 07:13:11;;;;;;;34.93;28.73;;;0.00;99.90;;;;;;4968116;28;21015;-75
2022/03/04 07:15:38;;;;;;;43.67;31.87;;;0.10;99.90;;;;;;4970504;28;21596;-71
2022/03/04 07:18:05;;;;;;;40.90;30.97;;;0.20;99.90;;;;;;4975064;28;20476;-71
2022/03/04 07:20:32;;;;;;;37.03;29.53;;;0.30;99.90;;;;;;4999978;28;20468;-74
2022/03/04 07:22:59;;;;;;;51.63;31.80;;;0.40;99.90;;;;;;4999632;28;20467;-74
2022/03/04 07:25:26;;;;;;;40.93;30.97;;;0.50;99.90;;;;;;5000871;28;20646;-72
2022/03/04 07:27:52;;;;;;;41.63;30.53;;;0.60;99.90;;;;;;4975652;28;20606;-72
2022/03/04 07:30:21;;;;;;;48.20;32.03;;;0.80;99.90;;;;;;4968195;28;20472;-73
2022/03/04 07:32:49;;;;;;;38.33;29.23;;;0.90;99.90;;;;;;4969168;28;21020;-73
2022/03/04 07:35:16;;;;;;;33.90;30.33;;;1.10;99.90;;;;;;4969462;28;21065;-70
2022/03/04 07:37:43;;;;;;;51.40;30.90;;;1.20;99.90;;;;;;4966390;28;20756;-71
2022/03/04 07:40:12;;;;;;;37.33;29.90;;;1.40;99.90;;;;;;4967487;28;20469;-74
2022/03/04 07:42:39;;;;;;;32.03;28.53;;;1.60;99.90;;;;;;4965707;28;20475;-72
2022/03/04 07:45:08;;;;;;;39.20;31.97;;;1.60;99.90;;;;;;4966000;28;20514;-73
2022/03/04 07:47:36;;;;;;;34.83;29.80;;;1.80;99.90;;;;;;4966579;28;20472;-72
2022/03/04 07:50:08;;;;;;;39.00;30.60;;;1.80;99.90;;;;;;4967542;28;20471;-72
2022/03/04 07:52:34;;;;;;;35.47;31.63;;;2.00;99.90;;;;;;4967352;28;21773;-73
2022/03/04 07:55:02;;;;;;;37.57;31.17;;;2.10;99.90;;;;;;4966697;28;20458;-70
2022/03/04 07:57:29;;;;;;;39.27;31.77;;;2.20;99.90;;;;;;4965764;28;20466;-72
2022/03/04 07:59:56;;;;;;;35.13;31.30;;;2.40;99.90;;;;;;4966054;28;20476;-72
2022/03/04 08:02:23;;;;;;;42.60;32.97;;;2.50;99.90;;;;;;4966160;28;20521;-73
2022/03/04 08:04:51;;;;;;;34.00;30.40;;;2.60;99.90;;;;;;4966532;28;20469;-73
2022/03/04 08:07:18;;;;;;;45.70;33.70;;;2.80;99.90;;;;;;4967077;28;20474;-72
2022/03/04 08:09:46;;;;;;;40.87;33.17;;;3.00;99.90;;;;;;4965986;28;22460;-71
2022/03/04 08:12:13;;;;;;;36.03;32.10;;;3.10;99.90;;;;;;4965596;28;20528;-72
2022/03/04 08:14:40;;;;;;;41.17;32.33;;;3.20;99.90;;;;;;4965473;28;20521;-72
2022/03/04 08:17:07;;;;;;;36.57;32.60;;;3.30;99.90;;;;;;4966613;28;20684;-73
2022/03/04 08:19:35;;;;;;;43.40;32.83;;;3.50;99.90;;;;;;4964763;28;21027;-72
2022/03/04 08:22:04;;;;;;;34.80;31.13;;;3.50;99.90;;;;;;4966623;28;20470;-72
2022/03/04 08:24:31;;;;;;;42.93;31.43;;;3.70;99.90;;;;;;4965917;28;21093;-74
2022/03/04 08:26:58;;;;;;;48.77;32.60;;;3.70;99.90;;;;;;4966888;28;21068;-73
2022/03/04 08:29:25;;;;;;;37.63;32.23;;;3.90;99.90;;;;;;4965712;28;20469;-73
2022/03/04 08:31:51;;;;;;;42.50;32.10;;;4.00;99.90;;;;;;4965595;28;20474;-75
2022/03/04 08:34:19;;;;;;;38.73;33.30;;;4.10;99.90;;;;;;4965197;28;20504;-71
2022/03/04 08:36:49;;;;;;;37.33;32.10;;;4.10;99.90;;;;;;4965996;28;20520;-71
2022/03/04 08:39:17;;;;;;;38.20;31.57;;;4.30;99.90;;;;;;4967105;28;20478;-72
2022/03/04 08:41:44;;;;;;;37.77;33.73;;;4.40;99.90;;;;;;4965987;28;21054;-71
2022/03/04 08:44:12;;;;;;;39.03;33.47;;;4.40;99.90;;;;;;4966146;28;20568;-72
2022/03/04 08:46:38;;;;;;;44.67;33.93;;;4.60;99.90;;;;;;4964746;28;20627;-74
2022/03/04 08:49:06;;;;;;;38.80;34.60;;;4.60;99.90;;;;;;4966099;28;21053;-73
2022/03/04 08:51:32;;;;;;;39.80;33.83;;;4.80;99.90;;;;;;4965508;28;20588;-72
2022/03/04 08:53:59;;;;;;;38.93;34.60;;;4.90;99.90;;;;;;4965557;28;21032;-73
2022/03/04 08:56:28;;;;;;;41.63;34.17;;;5.20;99.90;;;;;;4967649;28;20467;-73
2022/03/04 08:58:54;;;;;;;39.43;35.13;;;5.30;99.90;;;;;;4966184;28;20842;-73
2022/03/04 09:01:22;;;;;;;39.33;34.27;;;5.40;99.90;;;;;;4966844;28;20469;-73
2022/03/04 09:03:48;;;;;;;38.90;33.27;;;5.60;99.90;;;;;;4965940;28;21207;-73
2022/03/04 09:06:15;;;;;;;41.33;34.67;;;5.70;99.90;;;;;;4966102;28;20466;-74
2022/03/04 09:08:42;;;;;;;39.43;34.97;;;5.80;99.90;;;;;;4966079;28;20957;-72
2022/03/04 09:11:09;;;;;;;44.83;34.17;;;5.80;99.90;;;;;;4988779;28;20470;-73
2022/03/04 09:13:37;;;;;;;41.57;35.77;;;5.90;99.90;;;;;;4981031;28;20491;-73
2022/03/04 09:16:05;;;;;;;38.47;34.27;;;6.00;99.90;;;;;;4966067;28;20636;-72
2022/03/04 09:18:32;;;;;;;41.40;34.23;;;5.90;99.90;;;;;;4965494;28;21047;-74
2022/03/04 09:20:59;;;;;;;43.67;34.00;;;5.80;99.90;;;;;;4965628;28;20872;-73
2022/03/04 09:23:26;;;;;;;41.27;36.40;;;5.90;99.90;;;;;;4965573;28;20883;-72
2022/03/04 09:25:53;;;;;;;36.30;32.50;;;6.00;99.90;;;;;;4966309;28;20497;-72
2022/03/04 09:28:20;;;;;;;43.50;33.20;;;6.30;99.90;;;;;;4967071;28;20565;-73
2022/03/04 09:30:48;;;;;;;41.70;36.00;;;6.50;99.90;;;;;;4965960;28;20471;-74
2022/03/04 09:33:15;;;;;;;38.70;34.30;;;6.70;99.90;;;;;;4964381;28;20502;-73
2022/03/04 09:35:41;;;;;;;40.30;34.10;;;6.70;99.90;;;;;;4965348;28;20482;-73
2022/03/04 09:38:08;;;;;;;44.50;34.87;;;7.00;99.90;;;;;;4965657;28;20491;-72
2022/03/04 09:40:35;;;;;;;39.53;34.93;;;7.20;99.90;;;;;;4964978;28;20479;-73
2022/03/04 09:43:05;;;;;;;39.43;35.23;;;7.30;99.90;;;;;;4964006;28;20494;-73
2022/03/04 09:45:32;;;;;;;39.30;34.73;;;7.30;99.90;;;;;;4986948;28;20965;-72
2022/03/04 09:48:02;;;;;;;44.00;34.83;;;7.30;99.90;;;;;;4996141;28;20467;-72
2022/03/04 09:50:30;;;;;;;40.40;36.10;;;7.20;99.90;;;;;;4989759;28;20479;-74
2022/03/04 09:52:58;;;;;;;50.43;36.10;;;7.20;99.90;;;;;;4975993;28;20533;-73
2022/03/04 09:55:25;;;;;;;37.57;33.47;;;7.30;99.90;;;;;;4964803;28;20465;-74
2022/03/04 09:57:52;;;;;;;39.20;34.97;;;7.50;99.90;;;;;;4966200;28;20483;-73
2022/03/04 10:00:18;;;;;;;39.00;34.83;;;7.40;99.90;;;;;;4965378;28;20458;-73
2022/03/04 10:02:45;;;;;;;41.10;36.60;;;7.50;99.90;;;;;;4969922;28;20464;-73
2022/03/04 10:05:14;;;;;;;44.53;36.00;;;7.60;99.90;;;;;;4968968;28;20473;-73
2022/03/04 10:07:43;;;;;;;45.10;37.50;;;7.70;99.90;;;;;;4968921;28;20559;-73
2022/03/04 10:10:12;;;;;;;39.03;34.90;;;7.90;99.90;;;;;;4969428;28;20568;-72
2022/03/04 10:12:51;;;;;;;38.03;34.13;;;8.20;99.90;;;;;;4967111;28;20501;-73
2022/03/04 10:15:18;;;;;;;40.60;36.10;;;8.30;99.90;;;;;;4967709;28;20469;-73
2022/03/04 10:17:58;;;;;;;49.40;35.97;;;8.70;99.90;;;;;;4967593;28;20470;-72
2022/03/04 10:20:35;;;;;;;39.83;35.70;;;9.80;99.90;;;;;;4967802;28;20465;-72
2022/03/04 10:23:18;;;;;;;42.43;37.27;;;10.40;98.40;;;;;;4967670;28;20476;-72
2022/03/04 10:25:47;;;;;;;39.63;35.40;;;11.30;97.30;;;;;;4965297;28;20493;-71
2022/03/04 10:28:14;;;;;;;39.73;35.47;;;11.40;95.40;;;;;;4967530;28;20473;-74
2022/03/04 10:30:45;;;;;;;43.20;35.63;;;11.60;94.60;;;;;;4968654;28;20481;-74
2022/03/04 10:33:14;;;;;;;40.40;36.37;;;11.70;94.30;;;;;;4967980;28;20665;-73
2022/03/04 10:35:43;;;;;;;40.27;35.43;;;11.90;93.60;;;;;;4977111;28;20462;-74
2022/03/04 10:38:23;;;;;;;43.77;35.90;;;11.90;92.20;;;;;;4969749;28;20459;-76
2022/03/04 10:40:51;;;;;;;44.80;36.03;;;12.40;92.20;;;;;;4969071;28;20470;-74
2022/03/04 10:43:23;;;;;;;43.23;35.77;;;13.30;91.50;;;;;;4969074;28;20558;-73
2022/03/04 10:46:01;;;;;;;37.53;33.60;;;14.30;90.00;;;;;;4968876;28;20488;-74
2022/03/04 10:48:27;;;;;;;41.23;35.10;;;14.90;86.00;;;;;;4969830;28;20551;-73
2022/03/04 10:50:57;;;;;;;43.00;35.60;;;14.40;83.70;;;;;;4969010;28;20470;-72
2022/03/04 10:53:25;;;;;;;39.40;35.10;;;14.60;81.80;;;;;;4966657;28;21005;-73
2022/03/04 10:55:54;;;;;;;41.00;35.20;;;14.50;80.00;;;;;;4967551;28;20461;-74
2022/03/04 10:58:23;;;;;;;40.93;36.57;;;15.40;79.30;;;;;;4967255;28;20470;-74
2022/03/04 11:00:52;;;;;;;41.40;34.70;;;15.50;75.40;;;;;;4967378;28;20602;-76
2022/03/04 11:03:20;;;;;;;40.10;35.80;;;15.60;73.70;;;;;;4964460;28;20474;-73
2022/03/04 11:05:48;;;;;;;38.10;34.40;;;15.70;73.30;;;;;;4966331;28;20470;-72
2022/03/04 11:08:16;;;;;;;47.03;37.10;;;16.10;72.70;;;;;;4966932;28;20457;-72
2022/03/04 11:10:44;;;;;;;38.37;34.37;;;16.00;68.20;;;;;;4965921;28;21061;-75
2022/03/04 11:13:12;;;;;;;40.57;35.67;;;16.00;68.40;;;;;;4964325;28;20583;-73
2022/03/04 11:15:40;;;;;;;44.03;34.40;;;16.30;67.50;;;;;;4964488;28;20459;-72
2022/03/04 11:18:08;;;;;;;39.00;34.77;;;16.90;63.90;;;;;;4964945;28;20969;-72
2022/03/04 11:20:35;;;;;;;41.30;36.80;;;17.70;64.60;;;;;;4966185;28;20487;-74
2022/03/04 11:23:03;;;;;;;43.87;38.97;;;17.90;61.60;;;;;;4966023;28;20478;-72
2022/03/04 11:25:38;;;;;;;44.73;37.00;;;17.80;58.80;;;;;;4966739;28;20488;-72
2022/03/04 11:28:26;;;;;;;44.63;37.37;;;18.00;59.80;;;;;;4964140;28;20471;-73
2022/03/04 11:31:00;;;;;;;43.03;36.33;;;18.10;57.70;;;;;;4967215;28;20478;-73
2022/03/04 11:33:29;;;;;;;42.30;37.90;;;17.70;58.80;;;;;;4966763;28;20482;-71
2022/03/04 11:36:10;;;;;;;44.90;38.13;;;17.00;57.60;;;;;;4967734;28;22245;-73
2022/03/04 11:39:09;;;;;;;44.23;38.50;;;16.70;57.60;;;;;;4968976;28;20782;-73
2022/03/04 11:42:11;;;;;;;41.80;37.33;;;16.70;57.80;;;;;;4967874;28;20619;-74
2022/03/04 11:44:59;;;;;;;43.03;38.23;;;17.00;57.40;;;;;;4967714;28;20472;-73
2022/03/04 11:47:31;;;;;;;42.20;37.77;;;17.60;57.10;;;;;;4966283;28;20461;-73
2022/03/04 11:49:58;;;;;;;42.43;38.07;;;17.60;56.00;;;;;;4967900;28;20461;-72
2022/03/04 11:52:29;;;;;;;39.40;35.60;;;17.80;57.10;;;;;;4965573;28;21001;-72
2022/03/04 11:55:13;;;;;;;40.70;36.80;;;18.10;54.90;;;;;;4965363;28;21109;-74
2022/03/04 11:57:42;;;;;;;40.33;36.33;;;18.00;54.60;;;;;;4965050;28;20501;-74
2022/03/04 12:00:31;;;;;;;42.37;37.83;;;18.30;54.50;;;;;;4966233;28;20477;-74
2022/03/04 12:03:00;;;;;;;42.67;37.93;;;18.30;54.10;;;;;;4966312;28;20680;-73
2022/03/04 12:05:30;;;;;;;41.70;37.33;;;18.70;54.00;;;;;;4967359;28;20475;-74
2022/03/04 12:08:11;;;;;;;41.30;37.00;;;19.00;52.70;;;;;;4967763;28;20664;-75
2022/03/04 12:10:43;;;;;;;41.07;36.60;;;18.60;52.60;;;;;;4966390;28;20474;-72
2022/03/04 12:13:13;;;;;;;40.20;36.13;;;18.90;51.90;;;;;;4965592;28;20470;-73
2022/03/04 12:15:44;;;;;;;39.33;35.33;;;19.00;50.90;;;;;;4966863;28;20457;-73
2022/03/04 12:18:16;;;;;;;39.93;36.13;;;19.50;51.30;;;;;;4966272;28;20584;-75
2022/03/04 12:21:10;;;;;;;41.40;37.33;;;19.70;50.70;;;;;;4967723;28;20474;-74
2022/03/04 12:23:39;;;;;;;39.00;34.27;;;19.60;50.50;;;;;;4965983;28;21019;-73
2022/03/04 12:26:11;;;;;;;41.37;36.77;;;19.10;46.60;;;;;;4966442;28;20502;-73
2022/03/04 12:28:44;;;;;;;39.97;36.00;;;19.30;49.00;;;;;;4966058;28;21276;-73
2022/03/04 12:31:25;;;;;;;41.03;36.87;;;19.20;48.10;;;;;;4966937;28;20466;-74
2022/03/04 12:33:56;;;;;;;58.50;36.10;;;19.20;48.90;;;;;;4962119;28;20497;-75
2022/03/04 12:36:25;;;;;;;42.80;35.73;;;19.30;48.80;;;;;;4964401;28;20489;-75
2022/03/04 12:38:53;;;;;;;40.27;36.27;;;19.80;47.80;;;;;;4965790;28;20482;-73
2022/03/04 12:41:22;;;;;;;38.23;34.23;;;19.80;46.00;;;;;;4966042;28;20474;-75
2022/03/04 12:43:50;;;;;;;42.20;34.00;;;19.50;45.10;;;;;;4965634;28;20464;-74